createdAt,value
2022-10-05T00:00:29.829Z,78.25
2022-10-05T00:03:12.426Z,78.21
2022-10-05T00:05:41.746Z,78.29
2022-10-05T00:08:25.768Z,78.26
2022-10-05T00:10:54.792Z,78.41
2022-10-05T00:13:26.448Z,78.30
2022-10-05T00:16:15.570Z,78.38
2022-10-05T00:18:53.633Z,78.39
2022-10-05T00:21:25.784Z,78.42
2022-10-05T00:24:11.548Z,78.41
2022-10-05T00:26:40.592Z,78.57
2022-10-05T00:29:24.071Z,78.49
2022-10-05T00:31:53.028Z,78.66
2022-10-05T00:34:21.965Z,78.75
2022-10-05T00:37:06.036Z,78.67
2022-10-05T00:39:39.060Z,78.78
2022-10-05T00:42:33.439Z,78.87
2022-10-05T00:45:23.670Z,78.79
2022-10-05T00:48:04.781Z,78.79
2022-10-05T00:50:55.561Z,79.08
2022-10-05T00:53:43.682Z,79.20
2022-10-05T00:56:25.663Z,79.21
2022-10-05T00:59:04.626Z,78.95
2022-10-05T01:02:11.213Z,79.12
2022-10-05T01:05:16.004Z,79.08
2022-10-05T01:07:44.894Z,79.22
2022-10-05T01:10:16.761Z,79.14
2022-10-05T01:13:37.121Z,79.31
2022-10-05T01:16:24.465Z,79.17
2022-10-05T01:19:27.531Z,79.15
2022-10-05T01:22:16.801Z,79.32
2022-10-05T01:25:30.876Z,79.40
2022-10-05T01:28:09.803Z,79.33
2022-10-05T01:31:07.088Z,79.43
2022-10-05T01:34:01.439Z,79.44
2022-10-05T01:36:57.152Z,79.41
2022-10-05T01:39:33.651Z,79.60
2022-10-05T01:42:08.288Z,79.52
2022-10-05T01:45:00.708Z,79.51
2022-10-05T01:47:48.373Z,79.44
2022-10-05T01:50:46.078Z,79.58
2022-10-05T01:53:44.324Z,79.75
2022-10-05T01:56:39.070Z,79.68
2022-10-05T01:59:38.098Z,79.84
2022-10-05T02:02:15.082Z,79.84
2022-10-05T02:05:08.724Z,79.70
2022-10-05T02:08:00.761Z,79.88
2022-10-05T02:10:36.876Z,79.90
2022-10-05T02:13:18.829Z,79.97
2022-10-05T02:16:04.918Z,79.96
2022-10-05T02:18:47.509Z,80.06
2022-10-05T02:21:34.561Z,80.10
2022-10-05T02:24:10.028Z,80.11
2022-10-05T02:26:41.555Z,80.13
2022-10-05T02:29:29.583Z,80.13
2022-10-05T02:32:07.427Z,80.15
2022-10-05T02:34:40.185Z,80.22
2022-10-05T02:37:54.552Z,80.28
2022-10-05T02:40:54.541Z,80.27
2022-10-05T02:43:45.662Z,80.33
2022-10-05T02:47:19.445Z,80.28
2022-10-05T02:49:57.753Z,80.42
2022-10-05T02:52:56.409Z,80.42
2022-10-05T02:55:37.496Z,80.44
2022-10-05T02:58:16.754Z,80.47
2022-10-05T03:00:54.716Z,80.61
2022-10-05T03:03:36.068Z,80.47
2022-10-05T03:06:25.820Z,80.55
2022-10-05T03:09:03.361Z,80.74
2022-10-05T03:11:38.443Z,80.60
2022-10-05T03:14:31.353Z,80.70
2022-10-05T03:17:17.260Z,80.70
2022-10-05T03:20:09.537Z,80.81
2022-10-05T03:23:06.454Z,80.76
2022-10-05T03:26:01.313Z,80.83
2022-10-05T03:28:48.703Z,80.78
2022-10-05T03:31:42.789Z,81.00
2022-10-05T03:34:44.840Z,80.99
2022-10-05T03:37:32.880Z,81.02
2022-10-05T03:40:08.194Z,80.95
2022-10-05T03:43:07.294Z,81.13
2022-10-05T03:45:48.042Z,81.19
2022-10-05T03:48:26.302Z,81.01
2022-10-05T03:51:21.947Z,81.11
2022-10-05T03:54:06.014Z,81.15
2022-10-05T03:57:10.311Z,81.09
2022-10-05T03:59:51.037Z,81.15
2022-10-05T04:02:28.356Z,81.22
2022-10-05T04:05:11.055Z,81.35
2022-10-05T04:08:07.251Z,81.25
2022-10-05T04:10:56.544Z,81.23
2022-10-05T04:13:46.591Z,81.46
2022-10-05T04:16:28.464Z,81.34
2022-10-05T04:19:15.883Z,81.28
2022-10-05T04:22:09.326Z,81.51
2022-10-05T04:24:51.742Z,81.47
2022-10-05T04:27:30.735Z,81.62
2022-10-05T04:30:18.962Z,81.65
2022-10-05T04:32:59.672Z,81.59
2022-10-05T04:36:10.032Z,81.72
2022-10-05T04:39:18.472Z,81.66
2022-10-05T04:42:18.235Z,81.79
2022-10-05T04:45:04.849Z,81.77
2022-10-05T04:47:57.322Z,81.67
2022-10-05T04:50:51.552Z,81.81
2022-10-05T04:53:33.986Z,81.84
2022-10-05T04:56:19.608Z,81.74
2022-10-05T04:59:25.434Z,82.01
2022-10-05T05:02:45.674Z,81.91
2022-10-05T05:06:04.981Z,82.01
2022-10-05T05:08:51.450Z,82.03
2022-10-05T05:11:56.274Z,82.14
2022-10-05T05:15:16.378Z,82.18
2022-10-05T05:18:24.171Z,82.09
2022-10-05T05:20:59.649Z,82.25
2022-10-05T05:24:11.760Z,82.05
2022-10-05T05:27:18.375Z,82.04
2022-10-05T05:30:38.869Z,82.31
2022-10-05T05:33:28.139Z,82.25
2022-10-05T05:36:38.933Z,82.32
2022-10-05T05:39:24.943Z,82.41
2022-10-05T05:42:22.189Z,82.28
2022-10-05T05:44:55.411Z,82.41
2022-10-05T05:47:38.210Z,82.27
2022-10-05T05:50:28.345Z,82.52
2022-10-05T05:53:23.803Z,82.41
2022-10-05T05:56:13.647Z,82.34
2022-10-05T05:58:45.388Z,82.46
2022-10-05T06:01:39.474Z,82.46
2022-10-05T06:04:50.120Z,82.66
2022-10-05T06:07:30.698Z,82.34
2022-10-05T06:10:45.527Z,82.54
2022-10-05T06:13:36.144Z,82.36
2022-10-05T06:16:11.141Z,82.52
2022-10-05T06:18:45.107Z,82.57
2022-10-05T06:21:40.129Z,82.61
2022-10-05T06:24:50.204Z,82.71
2022-10-05T06:27:58.741Z,82.90
2022-10-05T06:30:51.088Z,82.74
2022-10-05T06:33:39.238Z,82.94
2022-10-05T06:36:36.867Z,82.94
2022-10-05T06:39:36.736Z,82.93
2022-10-05T06:42:23.666Z,83.23
2022-10-05T06:45:41.201Z,83.31
2022-10-05T06:48:41.636Z,83.15
2022-10-05T06:51:41.290Z,83.09
2022-10-05T06:54:28.569Z,82.86
2022-10-05T06:57:33.491Z,82.97
2022-10-05T07:00:07.730Z,82.72
2022-10-05T07:03:30.158Z,83.01
2022-10-05T07:06:26.179Z,83.08
2022-10-05T07:09:30.492Z,82.79
2022-10-05T07:12:18.628Z,83.09
2022-10-05T07:15:19.531Z,82.66
2022-10-05T07:18:26.353Z,82.59
2022-10-05T07:21:17.939Z,82.60
2022-10-05T07:24:22.351Z,82.62
2022-10-05T07:27:16.567Z,82.71
2022-10-05T07:30:08.484Z,82.82
2022-10-05T07:33:06.053Z,83.07
2022-10-05T07:36:38.594Z,83.11
2022-10-05T07:39:59.051Z,82.57
2022-10-05T07:42:52.047Z,82.58
2022-10-05T07:45:38.123Z,82.64
2022-10-05T07:48:33.355Z,82.73
2022-10-05T07:51:27.986Z,82.38
2022-10-05T07:54:48.470Z,82.37
2022-10-05T07:57:42.368Z,82.29
2022-10-05T08:00:45.707Z,82.41
2022-10-05T08:03:41.950Z,82.41
2022-10-05T08:06:52.046Z,82.05
2022-10-05T08:09:42.642Z,81.84
2022-10-05T08:12:34.935Z,81.63
2022-10-05T08:18:42.065Z,81.42
2022-10-05T08:21:14.132Z,81.19
2022-10-05T08:24:05.244Z,81.37
2022-10-05T08:26:52.622Z,81.26
2022-10-05T08:29:33.462Z,81.48
2022-10-05T08:32:06.766Z,81.07
2022-10-05T08:34:38.625Z,80.77
2022-10-05T08:37:32.471Z,80.90
2022-10-05T08:40:43.040Z,80.70
2022-10-05T08:43:24.439Z,80.68
2022-10-05T08:46:25.175Z,80.88
2022-10-05T08:48:54.014Z,80.91
2022-10-05T08:52:13.812Z,80.91
2022-10-05T08:55:01.359Z,80.67
2022-10-05T08:57:41.301Z,80.38
2022-10-05T09:00:28.834Z,80.08
2022-10-05T09:03:34.347Z,79.70
2022-10-05T09:06:22.755Z,79.66
2022-10-05T09:09:36.217Z,79.53
2022-10-05T09:12:18.429Z,79.43
2022-10-05T09:15:38.859Z,79.10
2022-10-05T09:18:07.851Z,79.08
2022-10-05T09:20:55.538Z,78.69
2022-10-05T09:23:40.929Z,78.53
2022-10-05T09:26:41.323Z,78.65
2022-10-05T09:30:01.079Z,77.98
2022-10-05T09:32:52.094Z,77.85
2022-10-05T09:36:13.631Z,77.90
2022-10-05T09:39:19.178Z,77.62
2022-10-05T09:42:29.469Z,77.90
2022-10-05T09:45:21.433Z,77.68
2022-10-05T09:48:15.442Z,77.39
2022-10-05T09:51:19.967Z,77.55
2022-10-05T09:54:21.057Z,77.19
2022-10-05T09:57:41.153Z,77.49
2022-10-05T10:00:55.650Z,77.13
2022-10-05T10:04:08.160Z,77.27
2022-10-05T10:07:28.162Z,77.17
2022-10-05T10:10:33.844Z,76.80
2022-10-05T10:13:24.443Z,76.36
2022-10-05T10:16:30.877Z,76.50
2022-10-05T10:19:18.314Z,76.48
2022-10-05T10:22:18.113Z,76.96
2022-10-05T10:25:12.032Z,76.62
2022-10-05T10:28:15.117Z,76.30
2022-10-05T10:31:13.277Z,75.39
2022-10-05T10:34:38.100Z,75.65
2022-10-05T10:37:39.770Z,75.10
2022-10-05T10:40:27.708Z,74.70
2022-10-05T10:42:56.627Z,74.77
2022-10-05T10:45:29.396Z,74.77
2022-10-05T10:48:31.963Z,74.74
2022-10-05T10:51:52.310Z,74.28
2022-10-05T10:54:53.754Z,74.04
2022-10-05T10:57:53.688Z,73.81
2022-10-05T11:01:32.251Z,74.27
2022-10-05T11:04:23.019Z,73.94
2022-10-05T11:07:43.038Z,74.00
2022-10-05T11:10:14.512Z,74.33
2022-10-05T11:12:58.891Z,74.33
2022-10-05T11:16:01.043Z,74.24
2022-10-05T11:18:42.096Z,73.79
2022-10-05T11:21:36.809Z,73.20
2022-10-05T11:24:08.624Z,73.49
2022-10-05T11:27:15.420Z,73.95
2022-10-05T11:30:16.247Z,73.00
2022-10-05T11:33:04.178Z,72.84
2022-10-05T11:35:45.559Z,72.64
2022-10-05T11:38:42.514Z,72.49
2022-10-05T11:42:00.332Z,72.38
2022-10-05T11:45:12.063Z,72.43
2022-10-05T11:48:13.509Z,72.37
2022-10-05T11:50:54.637Z,72.51
2022-10-05T11:53:42.337Z,72.18
2022-10-05T11:59:29.143Z,72.21
2022-10-05T12:02:27.521Z,71.92
2022-10-05T12:05:28.595Z,71.55
2022-10-05T12:08:15.981Z,71.39
2022-10-05T12:11:00.405Z,71.43
2022-10-05T12:14:00.102Z,71.45
2022-10-05T12:16:59.481Z,71.47
2022-10-05T12:19:45.931Z,71.47
2022-10-05T12:22:37.881Z,71.28
2022-10-05T12:25:34.440Z,71.29
2022-10-05T12:28:09.918Z,71.36
2022-10-05T12:31:14.631Z,71.39
2022-10-05T12:34:16.077Z,71.43
2022-10-05T12:37:05.010Z,70.76
2022-10-05T12:39:46.846Z,71.07
2022-10-05T12:42:27.531Z,71.15
2022-10-05T12:45:16.290Z,71.05
2022-10-05T12:48:04.063Z,70.87
2022-10-05T12:50:52.953Z,70.44
2022-10-05T12:54:03.214Z,70.71
2022-10-05T12:56:53.260Z,70.65
2022-10-05T12:59:43.923Z,70.57
2022-10-05T13:02:12.902Z,70.67
2022-10-05T13:04:51.425Z,70.37
2022-10-05T13:07:45.222Z,70.26
2022-10-05T13:10:36.199Z,70.25
2022-10-05T13:13:21.066Z,70.38
2022-10-05T13:16:13.822Z,70.33
2022-10-05T13:19:06.736Z,70.17
2022-10-05T13:22:03.762Z,70.11
2022-10-05T13:24:59.729Z,70.12
2022-10-05T13:27:36.626Z,70.13
2022-10-05T13:30:21.866Z,70.07
2022-10-05T13:33:21.692Z,70.16
2022-10-05T13:36:25.507Z,70.18
2022-10-05T13:39:46.185Z,70.22
2022-10-05T13:42:37.258Z,70.38
2022-10-05T13:45:30.956Z,70.43
2022-10-05T13:48:21.167Z,70.59
2022-10-05T13:50:50.126Z,70.28
2022-10-05T13:53:45.730Z,70.30
2022-10-05T13:56:42.019Z,70.42
2022-10-05T13:59:36.564Z,70.51
2022-10-05T14:02:10.594Z,70.69
2022-10-05T14:05:01.308Z,70.55
2022-10-05T14:07:36.943Z,70.38
2022-10-05T14:10:29.665Z,70.45
2022-10-05T14:12:59.974Z,70.54
2022-10-05T14:15:41.989Z,70.52
2022-10-05T14:18:32.067Z,70.66
2022-10-05T14:21:05.042Z,70.51
2022-10-05T14:23:47.462Z,70.60
2022-10-05T14:26:42.005Z,70.64
2022-10-05T14:29:35.670Z,70.43
2022-10-05T14:32:25.259Z,70.49
2022-10-05T14:35:01.928Z,70.58
2022-10-05T14:37:56.593Z,70.51
2022-10-05T14:40:31.910Z,70.68
2022-10-05T14:43:21.185Z,70.75
2022-10-05T14:46:27.211Z,70.70
2022-10-05T14:49:26.894Z,70.71
2022-10-05T14:51:57.120Z,70.67
2022-10-05T14:54:44.583Z,70.75
2022-10-05T14:58:03.473Z,70.78
2022-10-05T15:01:03.169Z,70.63
2022-10-05T15:03:35.773Z,70.65
2022-10-05T15:06:16.371Z,70.75
2022-10-05T15:09:17.031Z,70.73
2022-10-05T15:12:01.492Z,70.70
2022-10-05T15:14:43.246Z,70.87
2022-10-05T15:17:52.773Z,70.84
2022-10-05T15:20:58.044Z,70.76
2022-10-05T15:23:49.407Z,70.76
2022-10-05T15:26:40.052Z,71.07
2022-10-05T15:30:00.074Z,70.83
2022-10-05T15:33:01.030Z,70.97
2022-10-05T15:35:39.293Z,71.06
2022-10-05T15:38:27.514Z,70.88
2022-10-05T15:41:18.588Z,71.05
2022-10-05T15:44:14.593Z,71.20
2022-10-05T15:46:44.375Z,71.12
2022-10-05T15:52:37.900Z,71.26
2022-10-05T15:55:06.871Z,71.47
2022-10-05T15:58:11.355Z,71.52
2022-10-05T16:00:49.054Z,71.42
2022-10-05T16:03:21.670Z,71.44
2022-10-05T16:06:34.018Z,71.52
2022-10-05T16:09:09.522Z,71.62
2022-10-05T16:11:52.079Z,71.80
2022-10-05T16:14:28.218Z,71.86
2022-10-05T16:17:15.585Z,71.94
2022-10-05T16:19:56.778Z,71.96
2022-10-05T16:22:39.943Z,72.08
2022-10-05T16:26:02.575Z,72.15
2022-10-05T16:29:05.557Z,72.59
2022-10-05T16:32:07.308Z,72.36
2022-10-05T16:35:13.441Z,72.38
2022-10-05T16:37:59.785Z,72.71
2022-10-05T16:40:47.594Z,72.43
2022-10-05T16:44:28.582Z,72.58
2022-10-05T16:47:42.590Z,72.86
2022-10-05T16:50:29.624Z,72.90
2022-10-05T16:53:25.809Z,73.01
2022-10-05T16:56:03.792Z,72.96
2022-10-05T16:58:41.791Z,73.19
2022-10-05T17:01:33.329Z,73.30
2022-10-05T17:04:23.957Z,73.16
2022-10-05T17:07:15.396Z,73.20
2022-10-05T17:09:47.739Z,73.38
2022-10-05T17:13:16.533Z,73.34
2022-10-05T17:16:22.783Z,73.43
2022-10-05T17:19:46.887Z,73.49
2022-10-05T17:22:52.556Z,73.50
2022-10-05T17:25:46.338Z,73.76
2022-10-05T17:28:22.778Z,73.76
2022-10-05T17:31:13.170Z,73.83
2022-10-05T17:34:21.358Z,73.73
2022-10-05T17:36:54.488Z,73.86
2022-10-05T17:39:44.200Z,74.09
2022-10-05T17:42:43.910Z,74.01
2022-10-05T17:45:13.068Z,74.08
2022-10-05T17:48:34.302Z,74.10
2022-10-05T17:51:47.383Z,74.16
2022-10-05T17:54:51.429Z,74.18
2022-10-05T17:57:28.003Z,74.40
2022-10-05T18:00:35.335Z,74.45
2022-10-05T18:03:42.483Z,74.54
2022-10-05T18:06:34.953Z,74.53
2022-10-05T18:09:21.034Z,74.58
2022-10-05T18:12:26.743Z,74.58
2022-10-05T18:15:22.664Z,74.81
2022-10-05T18:17:59.769Z,74.84
2022-10-05T18:21:02.483Z,74.86
2022-10-05T18:24:00.357Z,74.84
2022-10-05T18:26:49.428Z,74.87
2022-10-05T18:30:02.737Z,75.01
2022-10-05T18:32:37.434Z,75.08
2022-10-05T18:35:33.800Z,75.09
2022-10-05T18:38:40.052Z,75.34
2022-10-05T18:41:17.726Z,75.08
2022-10-05T18:44:14.877Z,75.24
2022-10-05T18:47:05.623Z,75.37
2022-10-05T18:49:37.343Z,75.52
2022-10-05T18:52:45.100Z,75.47
2022-10-05T18:55:25.216Z,75.58
2022-10-05T18:58:32.204Z,75.73
2022-10-05T19:01:22.237Z,75.72
2022-10-05T19:04:23.396Z,75.89
2022-10-05T19:07:01.970Z,75.99
2022-10-05T19:10:03.851Z,75.90
2022-10-05T19:12:51.492Z,75.98
2022-10-05T19:16:03.534Z,76.17
2022-10-05T19:18:54.153Z,76.27
2022-10-05T19:21:28.064Z,76.31
2022-10-05T19:24:35.580Z,76.37
2022-10-05T19:27:24.681Z,76.49
2022-10-05T19:30:21.084Z,76.57
2022-10-05T19:33:06.934Z,76.81
2022-10-05T19:36:05.182Z,76.66
2022-10-05T19:39:12.332Z,76.73
2022-10-05T19:42:32.148Z,76.72
2022-10-05T19:45:10.100Z,77.05
2022-10-05T19:47:57.468Z,76.85
2022-10-05T19:50:30.317Z,77.04
2022-10-05T19:53:24.553Z,77.11
2022-10-05T19:55:55.560Z,77.07
2022-10-05T19:58:30.431Z,77.12
2022-10-05T20:01:36.899Z,77.08
2022-10-05T20:04:06.013Z,77.30
2022-10-05T20:06:39.867Z,77.41
2022-10-05T20:09:23.726Z,77.36
2022-10-05T20:11:53.871Z,77.43
2022-10-05T20:14:59.155Z,77.52
2022-10-05T20:17:48.269Z,77.40
2022-10-05T20:20:43.252Z,77.67
2022-10-05T20:23:28.223Z,77.66
2022-10-05T20:26:15.653Z,77.37
2022-10-05T20:28:46.203Z,77.72
2022-10-05T20:31:28.789Z,77.59
2022-10-05T20:33:59.767Z,77.66
2022-10-05T20:36:44.818Z,77.80
2022-10-05T20:39:15.953Z,77.63
2022-10-05T20:41:47.984Z,77.65
2022-10-05T20:44:16.869Z,77.78
2022-10-05T20:46:47.161Z,77.76
2022-10-05T20:49:31.341Z,77.88
2022-10-05T20:52:00.357Z,77.94
2022-10-05T20:54:42.878Z,77.83
2022-10-05T20:57:13.034Z,78.03
2022-10-05T20:59:55.515Z,78.11
2022-10-05T21:02:39.696Z,78.10
2022-10-05T21:05:09.225Z,78.09
2022-10-05T21:07:38.202Z,78.18
2022-10-05T21:10:08.627Z,78.27
2022-10-05T21:12:37.852Z,78.06
2022-10-05T21:15:21.622Z,78.40
2022-10-05T21:18:04.337Z,78.42
2022-10-05T21:20:48.086Z,78.34
2022-10-05T21:23:32.807Z,78.32
2022-10-05T21:26:16.838Z,78.32
2022-10-05T21:28:45.818Z,78.47
2022-10-05T21:31:29.104Z,78.64
2022-10-05T21:33:58.027Z,78.68
2022-10-05T21:36:40.421Z,78.77
2022-10-05T21:39:09.540Z,78.83
2022-10-05T21:41:52.378Z,78.87
2022-10-05T21:44:34.708Z,78.77
2022-10-05T21:47:17.467Z,78.88
2022-10-05T21:49:46.306Z,78.81
2022-10-05T21:52:29.074Z,78.84
2022-10-05T21:54:57.955Z,78.94
2022-10-05T21:57:26.767Z,78.76
2022-10-05T21:59:55.732Z,78.68
2022-10-05T22:02:24.437Z,78.93
2022-10-05T22:04:53.228Z,78.91
2022-10-05T22:07:22.053Z,79.18
2022-10-05T22:10:06.064Z,79.05
2022-10-05T22:12:35.703Z,79.34
2022-10-05T22:15:18.156Z,79.32
2022-10-05T22:18:00.606Z,78.95
2022-10-05T22:20:29.830Z,79.16
2022-10-05T22:23:13.263Z,79.22
2022-10-05T22:25:43.095Z,79.41
2022-10-05T22:28:26.781Z,79.25
2022-10-05T22:30:56.474Z,79.49
2022-10-05T22:33:39.204Z,79.31
2022-10-05T22:36:22.066Z,79.25
2022-10-05T22:39:04.619Z,79.31
2022-10-05T22:41:47.206Z,79.61
2022-10-05T22:44:17.262Z,79.32
2022-10-05T22:46:46.061Z,79.52
2022-10-05T22:49:29.001Z,79.68
2022-10-05T22:51:58.384Z,79.21
2022-10-05T22:54:29.980Z,79.52
2022-10-05T22:57:00.320Z,79.46
2022-10-05T22:59:31.054Z,79.76
2022-10-05T23:02:00.027Z,79.55
2022-10-05T23:04:29.143Z,79.40
2022-10-05T23:06:58.353Z,79.43
2022-10-05T23:09:40.904Z,79.56
2022-10-05T23:12:10.368Z,79.57
2022-10-05T23:14:39.581Z,79.53
2022-10-05T23:17:08.547Z,79.99
2022-10-05T23:19:37.322Z,79.91
2022-10-05T23:22:21.097Z,79.69
2022-10-05T23:25:05.120Z,79.92
2022-10-05T23:27:48.014Z,79.98
2022-10-05T23:30:17.212Z,79.98
2022-10-05T23:32:59.650Z,79.90
2022-10-05T23:35:42.111Z,80.21
2022-10-05T23:38:11.203Z,80.10
2022-10-05T23:40:40.289Z,80.15
2022-10-05T23:43:08.941Z,79.94
2022-10-05T23:45:37.943Z,80.07
2022-10-05T23:48:06.600Z,79.88
2022-10-05T23:50:35.502Z,80.25
2022-10-05T23:53:18.870Z,80.08
2022-10-05T23:55:50.966Z,80.44
2022-10-05T23:58:20.345Z,80.25
